sensor_id;sensor_type;location;lat;lon;timestamp;temperature;humidity
70807;DHT22;58882;52.170;5.386;2022-07-23T00:00:47;22.60;51.60
70807;DHT22;58882;52.170;5.386;2022-07-23T00:03:34;22.60;51.60
70807;DHT22;58882;52.170;5.386;2022-07-23T00:06:07;22.50;51.80
70807;DHT22;58882;52.170;5.386;2022-07-23T00:09:01;22.60;51.90
70807;DHT22;58882;52.170;5.386;2022-07-23T00:11:55;22.60;51.90
70807;DHT22;58882;52.170;5.386;2022-07-23T00:14:35;22.60;51.90
70807;DHT22;58882;52.170;5.386;2022-07-23T00:17:22;22.50;51.90
70807;DHT22;58882;52.170;5.386;2022-07-23T00:20:02;22.50;52.00
70807;DHT22;58882;52.170;5.386;2022-07-23T00:22:57;22.50;52.10
70807;DHT22;58882;52.170;5.386;2022-07-23T00:25:37;22.50;52.20
70807;DHT22;58882;52.170;5.386;2022-07-23T00:28:32;22.50;52.20
70807;DHT22;58882;52.170;5.386;2022-07-23T00:31:05;22.50;52.30
70807;DHT22;58882;52.170;5.386;2022-07-23T00:33:59;22.50;52.20
70807;DHT22;58882;52.170;5.386;2022-07-23T00:36:41;22.50;52.40
70807;DHT22;58882;52.170;5.386;2022-07-23T00:39:28;22.50;52.30
70807;DHT22;58882;52.170;5.386;2022-07-23T00:42:08;22.50;52.40
70807;DHT22;58882;52.170;5.386;2022-07-23T00:44:55;22.50;52.30
70807;DHT22;58882;52.170;5.386;2022-07-23T00:47:35;22.40;52.30
70807;DHT22;58882;52.170;5.386;2022-07-23T00:50:23;22.40;52.40
70807;DHT22;58882;52.170;5.386;2022-07-23T00:53:04;22.40;52.50
70807;DHT22;58882;52.170;5.386;2022-07-23T00:55:53;22.40;52.50
70807;DHT22;58882;52.170;5.386;2022-07-23T00:58:35;22.40;52.60
70807;DHT22;58882;52.170;5.386;2022-07-23T01:01:22;22.40;52.60
70807;DHT22;58882;52.170;5.386;2022-07-23T01:04:02;22.40;52.60
70807;DHT22;58882;52.170;5.386;2022-07-23T01:06:56;22.40;52.50
70807;DHT22;58882;52.170;5.386;2022-07-23T01:09:31;22.40;52.60
70807;DHT22;58882;52.170;5.386;2022-07-23T01:12:25;22.40;52.50
70807;DHT22;58882;52.170;5.386;2022-07-23T01:14:59;22.30;52.60
70807;DHT22;58882;52.170;5.386;2022-07-23T01:17:53;22.30;52.60
70807;DHT22;58882;52.170;5.386;2022-07-23T01:20:34;22.30;52.80
70807;DHT22;58882;52.170;5.386;2022-07-23T01:23:29;22.20;52.70
70807;DHT22;58882;52.170;5.386;2022-07-23T01:26:09;22.20;52.70
70807;DHT22;58882;52.170;5.386;2022-07-23T01:28:57;22.20;53.00
70807;DHT22;58882;52.170;5.386;2022-07-23T01:31:38;22.20;53.20
70807;DHT22;58882;52.170;5.386;2022-07-23T01:34:33;22.20;53.40
70807;DHT22;58882;52.170;5.386;2022-07-23T01:37:06;22.10;53.40
70807;DHT22;58882;52.170;5.386;2022-07-23T01:40:00;22.10;54.40
70807;DHT22;58882;52.170;5.386;2022-07-23T01:42:41;22.10;53.40
70807;DHT22;58882;52.170;5.386;2022-07-23T01:45:28;22.10;53.50
70807;DHT22;58882;52.170;5.386;2022-07-23T01:48:08;22.00;53.60
70807;DHT22;58882;52.170;5.386;2022-07-23T01:51:19;22.10;53.60
70807;DHT22;58882;52.170;5.386;2022-07-23T01:54:06;22.10;53.70
70807;DHT22;58882;52.170;5.386;2022-07-23T01:56:54;22.10;53.70
70807;DHT22;58882;52.170;5.386;2022-07-23T01:59:34;22.10;53.80
70807;DHT22;58882;52.170;5.386;2022-07-23T02:02:25;22.00;53.60
70807;DHT22;58882;52.170;5.386;2022-07-23T02:05:25;22.00;53.70
70807;DHT22;58882;52.170;5.386;2022-07-23T02:08:12;22.00;53.70
70807;DHT22;58882;52.170;5.386;2022-07-23T02:10:59;22.00;53.80
70807;DHT22;58882;52.170;5.386;2022-07-23T02:13:53;22.00;53.90
70807;DHT22;58882;52.170;5.386;2022-07-23T02:16:33;22.00;53.90
70807;DHT22;58882;52.170;5.386;2022-07-23T02:19:20;22.00;53.90
70807;DHT22;58882;52.170;5.386;2022-07-23T02:22:01;21.90;53.90
70807;DHT22;58882;52.170;5.386;2022-07-23T02:24:48;21.90;54.00
70807;DHT22;58882;52.170;5.386;2022-07-23T02:27:28;21.90;54.00
70807;DHT22;58882;52.170;5.386;2022-07-23T02:30:15;21.90;54.00
70807;DHT22;58882;52.170;5.386;2022-07-23T02:32:55;21.90;54.10
70807;DHT22;58882;52.170;5.386;2022-07-23T02:35:42;21.90;54.10
70807;DHT22;58882;52.170;5.386;2022-07-23T02:38:22;21.80;55.20
70807;DHT22;58882;52.170;5.386;2022-07-23T02:41:09;21.80;54.30
70807;DHT22;58882;52.170;5.386;2022-07-23T02:43:50;21.80;55.40
70807;DHT22;58882;52.170;5.386;2022-07-23T02:46:37;21.70;54.40
70807;DHT22;58882;52.170;5.386;2022-07-23T02:49:17;21.70;54.60
70807;DHT22;58882;52.170;5.386;2022-07-23T02:52:05;21.70;54.60
70807;DHT22;58882;52.170;5.386;2022-07-23T02:54:45;21.70;54.60
70807;DHT22;58882;52.170;5.386;2022-07-23T02:57:32;21.60;54.70
70807;DHT22;58882;52.170;5.386;2022-07-23T03:00:12;21.60;54.70
70807;DHT22;58882;52.170;5.386;2022-07-23T03:03:00;21.60;54.70
70807;DHT22;58882;52.170;5.386;2022-07-23T03:05:41;21.60;54.80
70807;DHT22;58882;52.170;5.386;2022-07-23T03:08:35;21.60;54.90
70807;DHT22;58882;52.170;5.386;2022-07-23T03:11:08;21.60;54.80
70807;DHT22;58882;52.170;5.386;2022-07-23T03:14:02;21.60;54.90
70807;DHT22;58882;52.170;5.386;2022-07-23T03:16:42;21.50;54.80
70807;DHT22;58882;52.170;5.386;2022-07-23T03:19:30;21.50;54.90
70807;DHT22;58882;52.170;5.386;2022-07-23T03:22:10;21.50;55.00
70807;DHT22;58882;52.170;5.386;2022-07-23T03:24:57;21.50;55.00
70807;DHT22;58882;52.170;5.386;2022-07-23T03:27:33;21.50;55.00
70807;DHT22;58882;52.170;5.386;2022-07-23T03:30:28;21.50;55.00
70807;DHT22;58882;52.170;5.386;2022-07-23T03:33:08;21.50;55.00
70807;DHT22;58882;52.170;5.386;2022-07-23T03:36:03;21.50;56.10
70807;DHT22;58882;52.170;5.386;2022-07-23T03:38:44;21.40;55.10
70807;DHT22;58882;52.170;5.386;2022-07-23T03:41:32;21.40;55.20
70807;DHT22;58882;52.170;5.386;2022-07-23T03:44:12;21.40;55.10
70807;DHT22;58882;52.170;5.386;2022-07-23T03:46:59;21.40;55.10
70807;DHT22;58882;52.170;5.386;2022-07-23T03:49:33;21.40;55.10
70807;DHT22;58882;52.170;5.386;2022-07-23T03:52:27;21.40;55.00
70807;DHT22;58882;52.170;5.386;2022-07-23T03:55:07;21.40;55.10
70807;DHT22;58882;52.170;5.386;2022-07-23T03:57:54;21.30;55.20
70807;DHT22;58882;52.170;5.386;2022-07-23T04:00:34;21.30;55.20
70807;DHT22;58882;52.170;5.386;2022-07-23T04:03:21;21.30;55.20
70807;DHT22;58882;52.170;5.386;2022-07-23T04:06:01;21.30;55.20
70807;DHT22;58882;52.170;5.386;2022-07-23T04:08:48;21.30;55.20
70807;DHT22;58882;52.170;5.386;2022-07-23T04:11:36;21.30;56.30
70807;DHT22;58882;52.170;5.386;2022-07-23T04:14:30;21.30;55.30
70807;DHT22;58882;52.170;5.386;2022-07-23T04:17:11;21.30;55.30
70807;DHT22;58882;52.170;5.386;2022-07-23T04:19:59;21.20;55.40
70807;DHT22;58882;52.170;5.386;2022-07-23T04:22:46;21.30;55.50
70807;DHT22;58882;52.170;5.386;2022-07-23T04:25:33;21.20;55.50
70807;DHT22;58882;52.170;5.386;2022-07-23T04:28:13;21.20;55.50
70807;DHT22;58882;52.170;5.386;2022-07-23T04:31:07;21.20;55.60
70807;DHT22;58882;52.170;5.386;2022-07-23T04:33:47;21.20;55.60
70807;DHT22;58882;52.170;5.386;2022-07-23T04:36:34;21.20;55.50
70807;DHT22;58882;52.170;5.386;2022-07-23T04:39:14;21.20;55.50
70807;DHT22;58882;52.170;5.386;2022-07-23T04:42:01;21.20;55.60
70807;DHT22;58882;52.170;5.386;2022-07-23T04:44:34;21.20;55.70
70807;DHT22;58882;52.170;5.386;2022-07-23T04:47:28;21.20;56.70
70807;DHT22;58882;52.170;5.386;2022-07-23T04:50:01;21.20;55.90
70807;DHT22;58882;52.170;5.386;2022-07-23T04:52:58;21.20;55.80
70807;DHT22;58882;52.170;5.386;2022-07-23T04:55:38;21.20;55.90
70807;DHT22;58882;52.170;5.386;2022-07-23T04:58:26;21.20;55.90
70807;DHT22;58882;52.170;5.386;2022-07-23T05:01:06;21.20;55.90
70807;DHT22;58882;52.170;5.386;2022-07-23T05:03:53;21.20;55.90
70807;DHT22;58882;52.170;5.386;2022-07-23T05:06:36;21.20;56.00
70807;DHT22;58882;52.170;5.386;2022-07-23T05:09:30;21.20;56.00
70807;DHT22;58882;52.170;5.386;2022-07-23T05:12:24;21.30;56.20
70807;DHT22;58882;52.170;5.386;2022-07-23T05:14:57;21.30;57.00
70807;DHT22;58882;52.170;5.386;2022-07-23T05:17:51;21.30;56.00
70807;DHT22;58882;52.170;5.386;2022-07-23T05:20:32;21.30;56.00
70807;DHT22;58882;52.170;5.386;2022-07-23T05:23:22;21.30;56.00
70807;DHT22;58882;52.170;5.386;2022-07-23T05:26:02;21.30;55.90
70807;DHT22;58882;52.170;5.386;2022-07-23T05:28:49;21.40;55.90
70807;DHT22;58882;52.170;5.386;2022-07-23T05:31:29;21.40;55.90
70807;DHT22;58882;52.170;5.386;2022-07-23T05:34:16;21.40;55.90
70807;DHT22;58882;52.170;5.386;2022-07-23T05:36:57;21.40;55.90
70807;DHT22;58882;52.170;5.386;2022-07-23T05:39:44;21.40;55.90
70807;DHT22;58882;52.170;5.386;2022-07-23T05:42:24;21.40;55.60
70807;DHT22;58882;52.170;5.386;2022-07-23T05:45:11;21.40;55.60
70807;DHT22;58882;52.170;5.386;2022-07-23T05:47:51;21.50;55.50
70807;DHT22;58882;52.170;5.386;2022-07-23T05:50:44;21.50;55.40
70807;DHT22;58882;52.170;5.386;2022-07-23T05:53:29;21.50;55.60
70807;DHT22;58882;52.170;5.386;2022-07-23T05:56:27;21.50;55.40
70807;DHT22;58882;52.170;5.386;2022-07-23T05:59:07;21.50;55.30
70807;DHT22;58882;52.170;5.386;2022-07-23T06:01:55;21.60;55.30
70807;DHT22;58882;52.170;5.386;2022-07-23T06:04:35;21.60;55.10
70807;DHT22;58882;52.170;5.386;2022-07-23T06:07:33;21.70;55.10
70807;DHT22;58882;52.170;5.386;2022-07-23T06:10:21;21.70;55.10
70807;DHT22;58882;52.170;5.386;2022-07-23T06:13:17;21.70;55.00
70807;DHT22;58882;52.170;5.386;2022-07-23T06:15:57;21.80;55.00
70807;DHT22;58882;52.170;5.386;2022-07-23T06:18:51;21.80;54.80
70807;DHT22;58882;52.170;5.386;2022-07-23T06:21:32;21.80;54.70
70807;DHT22;58882;52.170;5.386;2022-07-23T06:24:27;21.90;54.80
70807;DHT22;58882;52.170;5.386;2022-07-23T06:27:07;21.90;54.60
70807;DHT22;58882;52.170;5.386;2022-07-23T06:29:54;22.00;54.50
70807;DHT22;58882;52.170;5.386;2022-07-23T06:32:34;22.00;54.40
70807;DHT22;58882;52.170;5.386;2022-07-23T06:35:21;22.10;54.20
70807;DHT22;58882;52.170;5.386;2022-07-23T06:38:01;22.10;53.90
70807;DHT22;58882;52.170;5.386;2022-07-23T06:40:48;22.20;53.60
70807;DHT22;58882;52.170;5.386;2022-07-23T06:43:30;22.20;53.50
70807;DHT22;58882;52.170;5.386;2022-07-23T06:46:17;22.30;54.20
70807;DHT22;58882;52.170;5.386;2022-07-23T06:48:57;22.30;53.20
70807;DHT22;58882;52.170;5.386;2022-07-23T06:51:45;22.40;52.90
70807;DHT22;58882;52.170;5.386;2022-07-23T06:54:25;22.40;52.70
70807;DHT22;58882;52.170;5.386;2022-07-23T06:57:12;22.50;52.60
70807;DHT22;58882;52.170;5.386;2022-07-23T06:59:52;22.60;52.60
70807;DHT22;58882;52.170;5.386;2022-07-23T07:02:40;22.70;53.10
70807;DHT22;58882;52.170;5.386;2022-07-23T07:05:20;22.90;52.00
70807;DHT22;58882;52.170;5.386;2022-07-23T07:08:07;23.00;51.70
70807;DHT22;58882;52.170;5.386;2022-07-23T07:10:54;23.20;51.40
70807;DHT22;58882;52.170;5.386;2022-07-23T07:13:34;23.40;50.80
70807;DHT22;58882;52.170;5.386;2022-07-23T07:16:21;23.60;50.50
70807;DHT22;58882;52.170;5.386;2022-07-23T07:19:05;23.70;50.10
70807;DHT22;58882;52.170;5.386;2022-07-23T07:21:52;23.90;50.70
70807;DHT22;58882;52.170;5.386;2022-07-23T07:24:32;24.00;49.10
70807;DHT22;58882;52.170;5.386;2022-07-23T07:27:19;24.20;48.90
70807;DHT22;58882;52.170;5.386;2022-07-23T07:29:59;24.40;48.50
70807;DHT22;58882;52.170;5.386;2022-07-23T07:32:46;24.50;48.00
70807;DHT22;58882;52.170;5.386;2022-07-23T07:35:29;24.60;47.60
70807;DHT22;58882;52.170;5.386;2022-07-23T07:38:18;24.80;47.40
70807;DHT22;58882;52.170;5.386;2022-07-23T07:40:52;25.00;47.00
70807;DHT22;58882;52.170;5.386;2022-07-23T07:43:46;25.30;46.80
70807;DHT22;58882;52.170;5.386;2022-07-23T07:46:26;25.60;46.10
70807;DHT22;58882;52.170;5.386;2022-07-23T07:49:14;25.80;45.30
70807;DHT22;58882;52.170;5.386;2022-07-23T07:51:49;25.90;44.60
70807;DHT22;58882;52.170;5.386;2022-07-23T07:54:43;26.10;44.20
70807;DHT22;58882;52.170;5.386;2022-07-23T07:57:23;26.30;43.60
70807;DHT22;58882;52.170;5.386;2022-07-23T08:00:12;26.50;43.20
70807;DHT22;58882;52.170;5.386;2022-07-23T08:02:53;26.70;42.70
70807;DHT22;58882;52.170;5.386;2022-07-23T08:05:42;26.70;43.20
70807;DHT22;58882;52.170;5.386;2022-07-23T08:08:22;26.70;42.20
70807;DHT22;58882;52.170;5.386;2022-07-23T08:11:16;26.70;42.20
70807;DHT22;58882;52.170;5.386;2022-07-23T08:14:10;26.60;43.20
70807;DHT22;58882;52.170;5.386;2022-07-23T08:16:44;26.60;42.10
70807;DHT22;58882;52.170;5.386;2022-07-23T08:19:54;26.60;42.20
70807;DHT22;58882;52.170;5.386;2022-07-23T08:22:50;26.70;42.20
70807;DHT22;58882;52.170;5.386;2022-07-23T08:25:42;26.70;41.80
70807;DHT22;58882;52.170;5.386;2022-07-23T08:28:22;26.80;41.50
70807;DHT22;58882;52.170;5.386;2022-07-23T08:31:20;26.90;41.30
70807;DHT22;58882;52.170;5.386;2022-07-23T08:34:00;27.00;41.00
70807;DHT22;58882;52.170;5.386;2022-07-23T08:36:47;27.10;40.80
70807;DHT22;58882;52.170;5.386;2022-07-23T08:39:34;27.20;40.60
70807;DHT22;58882;52.170;5.386;2022-07-23T08:42:14;27.40;40.20
70807;DHT22;58882;52.170;5.386;2022-07-23T08:45:08;27.50;40.00
70807;DHT22;58882;52.170;5.386;2022-07-23T08:47:43;27.60;39.50
70807;DHT22;58882;52.170;5.386;2022-07-23T08:50:37;27.70;39.30
70807;DHT22;58882;52.170;5.386;2022-07-23T08:53:19;27.90;39.10
70807;DHT22;58882;52.170;5.386;2022-07-23T08:56:13;28.00;38.70
70807;DHT22;58882;52.170;5.386;2022-07-23T08:58:46;28.20;39.40
70807;DHT22;58882;52.170;5.386;2022-07-23T09:01:40;28.30;38.20
70807;DHT22;58882;52.170;5.386;2022-07-23T09:04:20;28.50;37.90
70807;DHT22;58882;52.170;5.386;2022-07-23T09:07:07;28.60;37.60
70807;DHT22;58882;52.170;5.386;2022-07-23T09:10:08;28.70;37.30
70807;DHT22;58882;52.170;5.386;2022-07-23T09:12:55;28.90;37.10
70807;DHT22;58882;52.170;5.386;2022-07-23T09:15:48;29.00;36.70
70807;DHT22;58882;52.170;5.386;2022-07-23T09:21:27;29.30;36.30
70807;DHT22;58882;52.170;5.386;2022-07-23T09:24:14;29.40;36.00
70807;DHT22;58882;52.170;5.386;2022-07-23T09:26:57;29.50;35.70
70807;DHT22;58882;52.170;5.386;2022-07-23T09:29:57;29.70;35.60
70807;DHT22;58882;52.170;5.386;2022-07-23T09:32:31;29.80;35.40
70807;DHT22;58882;52.170;5.386;2022-07-23T09:35:53;29.90;35.20
70807;DHT22;58882;52.170;5.386;2022-07-23T09:38:33;30.00;34.80
70807;DHT22;58882;52.170;5.386;2022-07-23T09:41:35;30.10;34.70
70807;DHT22;58882;52.170;5.386;2022-07-23T09:44:17;30.10;34.40
70807;DHT22;58882;52.170;5.386;2022-07-23T09:47:11;30.20;34.20
70807;DHT22;58882;52.170;5.386;2022-07-23T09:49:58;30.20;33.90
70807;DHT22;58882;52.170;5.386;2022-07-23T09:52:49;30.30;33.70
70807;DHT22;58882;52.170;5.386;2022-07-23T09:55:34;30.30;33.70
70807;DHT22;58882;52.170;5.386;2022-07-23T09:58:28;30.30;33.60
70807;DHT22;58882;52.170;5.386;2022-07-23T10:01:10;30.30;33.50
70807;DHT22;58882;52.170;5.386;2022-07-23T10:03:57;30.40;33.30
70807;DHT22;58882;52.170;5.386;2022-07-23T10:07:04;30.40;33.20
70807;DHT22;58882;52.170;5.386;2022-07-23T10:10:17;30.50;33.00
70807;DHT22;58882;52.170;5.386;2022-07-23T10:13:24;30.60;33.00
70807;DHT22;58882;52.170;5.386;2022-07-23T10:16:43;30.70;32.80
70807;DHT22;58882;52.170;5.386;2022-07-23T10:19:24;30.70;32.70
70807;DHT22;58882;52.170;5.386;2022-07-23T10:22:22;30.80;32.70
70807;DHT22;58882;52.170;5.386;2022-07-23T10:31:41;30.70;32.40
70807;DHT22;58882;52.170;5.386;2022-07-23T10:40:25;30.80;32.10
70807;DHT22;58882;52.170;5.386;2022-07-23T10:43:00;30.80;32.00
70807;DHT22;58882;52.170;5.386;2022-07-23T10:46:25;30.80;31.80
70807;DHT22;58882;52.170;5.386;2022-07-23T10:49:28;30.80;31.80
70807;DHT22;58882;52.170;5.386;2022-07-23T10:52:26;30.80;31.90
70807;DHT22;58882;52.170;5.386;2022-07-23T10:58:02;30.70;31.90
70807;DHT22;58882;52.170;5.386;2022-07-23T11:00:43;30.70;31.90
70807;DHT22;58882;52.170;5.386;2022-07-23T11:03:33;30.70;31.90
70807;DHT22;58882;52.170;5.386;2022-07-23T11:06:17;30.60;31.80
70807;DHT22;58882;52.170;5.386;2022-07-23T11:09:27;30.60;31.80
70807;DHT22;58882;52.170;5.386;2022-07-23T11:15:14;30.60;31.80
70807;DHT22;58882;52.170;5.386;2022-07-23T11:20:41;30.50;31.80
70807;DHT22;58882;52.170;5.386;2022-07-23T11:23:14;30.50;31.80
70807;DHT22;58882;52.170;5.386;2022-07-23T11:26:08;30.50;31.90
70807;DHT22;58882;52.170;5.386;2022-07-23T11:28:41;30.40;31.80
70807;DHT22;58882;52.170;5.386;2022-07-23T11:31:35;30.40;31.90
70807;DHT22;58882;52.170;5.386;2022-07-23T11:37:15;30.30;31.80
70807;DHT22;58882;52.170;5.386;2022-07-23T11:40:15;30.30;31.90
70807;DHT22;58882;52.170;5.386;2022-07-23T11:42:58;30.20;31.90
70807;DHT22;58882;52.170;5.386;2022-07-23T11:46:00;30.20;32.00
70807;DHT22;58882;52.170;5.386;2022-07-23T11:48:40;30.10;32.00
70807;DHT22;58882;52.170;5.386;2022-07-23T11:51:34;30.10;32.20
70807;DHT22;58882;52.170;5.386;2022-07-23T11:54:07;30.00;32.30
70807;DHT22;58882;52.170;5.386;2022-07-23T11:57:02;29.90;32.40
70807;DHT22;58882;52.170;5.386;2022-07-23T11:59:36;29.80;32.50
70807;DHT22;58882;52.170;5.386;2022-07-23T12:02:33;29.80;32.70
70807;DHT22;58882;52.170;5.386;2022-07-23T12:05:18;29.70;32.50
70807;DHT22;58882;52.170;5.386;2022-07-23T12:08:09;29.60;32.70
70807;DHT22;58882;52.170;5.386;2022-07-23T12:10:57;29.40;32.90
70807;DHT22;58882;52.170;5.386;2022-07-23T12:13:37;29.30;33.00
70807;DHT22;58882;52.170;5.386;2022-07-23T12:16:24;29.20;33.10
70807;DHT22;58882;52.170;5.386;2022-07-23T12:19:04;29.10;33.30
70807;DHT22;58882;52.170;5.386;2022-07-23T12:21:58;29.00;33.50
70807;DHT22;58882;52.170;5.386;2022-07-23T12:24:53;29.00;33.60
70807;DHT22;58882;52.170;5.386;2022-07-23T12:27:59;28.90;33.80
70807;DHT22;58882;52.170;5.386;2022-07-23T12:30:45;28.90;33.90
70807;DHT22;58882;52.170;5.386;2022-07-23T12:33:40;28.80;34.00
70807;DHT22;58882;52.170;5.386;2022-07-23T12:36:37;28.70;34.00
70807;DHT22;58882;52.170;5.386;2022-07-23T12:39:33;28.70;34.30
70807;DHT22;58882;52.170;5.386;2022-07-23T12:42:13;28.60;34.30
70807;DHT22;58882;52.170;5.386;2022-07-23T12:45:10;28.50;34.40
70807;DHT22;58882;52.170;5.386;2022-07-23T12:47:56;28.50;34.60
70807;DHT22;58882;52.170;5.386;2022-07-23T12:51:08;28.40;34.70
70807;DHT22;58882;52.170;5.386;2022-07-23T12:54:08;28.30;34.80
70807;DHT22;58882;52.170;5.386;2022-07-23T12:56:48;28.30;34.80
70807;DHT22;58882;52.170;5.386;2022-07-23T12:59:42;28.30;35.00
70807;DHT22;58882;52.170;5.386;2022-07-23T13:02:23;28.20;35.00
70807;DHT22;58882;52.170;5.386;2022-07-23T13:05:17;28.20;35.20
70807;DHT22;58882;52.170;5.386;2022-07-23T13:07:50;28.10;35.30
70807;DHT22;58882;52.170;5.386;2022-07-23T13:10:46;28.10;35.40
70807;DHT22;58882;52.170;5.386;2022-07-23T13:13:41;28.00;35.50
70807;DHT22;58882;52.170;5.386;2022-07-23T13:16:21;28.00;35.60
70807;DHT22;58882;52.170;5.386;2022-07-23T13:19:08;27.90;35.60
70807;DHT22;58882;52.170;5.386;2022-07-23T13:21:51;27.90;35.70
70807;DHT22;58882;52.170;5.386;2022-07-23T13:24:38;27.90;35.80
70807;DHT22;58882;52.170;5.386;2022-07-23T13:27:18;27.80;35.80
70807;DHT22;58882;52.170;5.386;2022-07-23T13:30:05;27.80;36.00
70807;DHT22;58882;52.170;5.386;2022-07-23T13:32:48;27.70;36.10
70807;DHT22;58882;52.170;5.386;2022-07-23T13:35:40;27.70;36.20
70807;DHT22;58882;52.170;5.386;2022-07-23T13:38:20;27.60;36.30
70807;DHT22;58882;52.170;5.386;2022-07-23T13:41:07;27.60;36.30
70807;DHT22;58882;52.170;5.386;2022-07-23T13:43:47;27.60;36.30
70807;DHT22;58882;52.170;5.386;2022-07-23T13:46:42;27.60;36.40
70807;DHT22;58882;52.170;5.386;2022-07-23T13:49:15;27.50;36.50
70807;DHT22;58882;52.170;5.386;2022-07-23T13:52:09;27.50;36.60
70807;DHT22;58882;52.170;5.386;2022-07-23T13:54:49;27.50;36.70
70807;DHT22;58882;52.170;5.386;2022-07-23T13:57:36;27.40;36.70
70807;DHT22;58882;52.170;5.386;2022-07-23T14:00:16;27.40;36.80
70807;DHT22;58882;52.170;5.386;2022-07-23T14:03:24;27.40;36.90
70807;DHT22;58882;52.170;5.386;2022-07-23T14:05:57;27.30;36.90
70807;DHT22;58882;52.170;5.386;2022-07-23T14:08:55;27.30;37.00
70807;DHT22;58882;52.170;5.386;2022-07-23T14:11:28;27.30;37.20
70807;DHT22;58882;52.170;5.386;2022-07-23T14:14:22;27.20;37.10
70807;DHT22;58882;52.170;5.386;2022-07-23T14:16:56;27.20;37.20
70807;DHT22;58882;52.170;5.386;2022-07-23T14:19:50;27.20;37.20
70807;DHT22;58882;52.170;5.386;2022-07-23T14:22:30;27.20;37.40
70807;DHT22;58882;52.170;5.386;2022-07-23T14:25:17;27.20;37.40
70807;DHT22;58882;52.170;5.386;2022-07-23T14:27:58;27.10;37.50
70807;DHT22;58882;52.170;5.386;2022-07-23T14:30:45;27.10;37.50
70807;DHT22;58882;52.170;5.386;2022-07-23T14:33:25;27.10;37.60
70807;DHT22;58882;52.170;5.386;2022-07-23T14:36:12;27.10;37.70
70807;DHT22;58882;52.170;5.386;2022-07-23T14:38:52;27.10;37.80
70807;DHT22;58882;52.170;5.386;2022-07-23T14:41:40;27.00;37.80
70807;DHT22;58882;52.170;5.386;2022-07-23T14:44:20;27.00;37.90
70807;DHT22;58882;52.170;5.386;2022-07-23T14:47:07;27.00;37.90
70807;DHT22;58882;52.170;5.386;2022-07-23T14:49:53;27.00;38.00
70807;DHT22;58882;52.170;5.386;2022-07-23T14:52:40;26.90;38.00
70807;DHT22;58882;52.170;5.386;2022-07-23T14:55:21;26.90;38.00
70807;DHT22;58882;52.170;5.386;2022-07-23T14:58:08;26.90;38.10
70807;DHT22;58882;52.170;5.386;2022-07-23T15:00:51;26.90;38.20
70807;DHT22;58882;52.170;5.386;2022-07-23T15:03:38;26.90;38.20
70807;DHT22;58882;52.170;5.386;2022-07-23T15:06:18;26.80;39.20
70807;DHT22;58882;52.170;5.386;2022-07-23T15:09:05;26.80;38.20
70807;DHT22;58882;52.170;5.386;2022-07-23T15:11:53;26.80;38.30
70807;DHT22;58882;52.170;5.386;2022-07-23T15:14:33;26.80;38.40
70807;DHT22;58882;52.170;5.386;2022-07-23T15:17:20;26.80;38.40
70807;DHT22;58882;52.170;5.386;2022-07-23T15:19:54;26.80;38.50
70807;DHT22;58882;52.170;5.386;2022-07-23T15:22:48;26.70;38.60
70807;DHT22;58882;52.170;5.386;2022-07-23T15:25:21;26.70;38.60
70807;DHT22;58882;52.170;5.386;2022-07-23T15:28:15;26.70;38.60
70807;DHT22;58882;52.170;5.386;2022-07-23T15:30:55;26.70;38.60
70807;DHT22;58882;52.170;5.386;2022-07-23T15:33:49;26.70;38.70
70807;DHT22;58882;52.170;5.386;2022-07-23T15:36:29;26.60;38.70
70807;DHT22;58882;52.170;5.386;2022-07-23T15:39:23;26.60;38.90
70807;DHT22;58882;52.170;5.386;2022-07-23T15:42:03;26.60;38.80
70807;DHT22;58882;52.170;5.386;2022-07-23T15:44:54;26.70;38.80
70807;DHT22;58882;52.170;5.386;2022-07-23T15:47:34;26.70;38.80
70807;DHT22;58882;52.170;5.386;2022-07-23T15:50:21;26.70;38.70
70807;DHT22;58882;52.170;5.386;2022-07-23T15:53:01;26.70;38.70
70807;DHT22;58882;52.170;5.386;2022-07-23T15:55:55;26.70;38.70
70807;DHT22;58882;52.170;5.386;2022-07-23T15:58:36;26.70;38.70
70807;DHT22;58882;52.170;5.386;2022-07-23T16:01:24;26.60;38.70
70807;DHT22;58882;52.170;5.386;2022-07-23T16:04:04;26.60;38.70
70807;DHT22;58882;52.170;5.386;2022-07-23T16:06:51;26.60;38.80
70807;DHT22;58882;52.170;5.386;2022-07-23T16:09:31;26.60;38.70
70807;DHT22;58882;52.170;5.386;2022-07-23T16:12:18;26.60;38.80
70807;DHT22;58882;52.170;5.386;2022-07-23T16:14:58;26.60;38.90
70807;DHT22;58882;52.170;5.386;2022-07-23T16:17:46;26.60;39.00
70807;DHT22;58882;52.170;5.386;2022-07-23T16:20:26;26.60;39.20
70807;DHT22;58882;52.170;5.386;2022-07-23T16:23:13;26.50;39.10
70807;DHT22;58882;52.170;5.386;2022-07-23T16:25:53;26.50;39.80
70807;DHT22;58882;52.170;5.386;2022-07-23T16:28:41;26.50;39.70
70807;DHT22;58882;52.170;5.386;2022-07-23T16:31:21;26.60;39.70
70807;DHT22;58882;52.170;5.386;2022-07-23T16:34:11;26.60;39.60
70807;DHT22;58882;52.170;5.386;2022-07-23T16:36:52;26.60;39.70
70807;DHT22;58882;52.170;5.386;2022-07-23T16:39:39;26.60;39.70
70807;DHT22;58882;52.170;5.386;2022-07-23T16:42:19;26.60;39.80
70807;DHT22;58882;52.170;5.386;2022-07-23T16:45:08;26.60;39.80
70807;DHT22;58882;52.170;5.386;2022-07-23T16:47:49;26.50;39.80
70807;DHT22;58882;52.170;5.386;2022-07-23T16:50:36;26.50;39.90
70807;DHT22;58882;52.170;5.386;2022-07-23T16:53:16;26.50;40.00
70807;DHT22;58882;52.170;5.386;2022-07-23T16:56:10;26.50;40.10
70807;DHT22;58882;52.170;5.386;2022-07-23T16:58:43;26.40;40.10
70807;DHT22;58882;52.170;5.386;2022-07-23T17:01:37;26.40;40.30
70807;DHT22;58882;52.170;5.386;2022-07-23T17:04:18;26.40;40.40
70807;DHT22;58882;52.170;5.386;2022-07-23T17:07:06;26.40;41.40
70807;DHT22;58882;52.170;5.386;2022-07-23T17:09:47;26.40;40.50
70807;DHT22;58882;52.170;5.386;2022-07-23T17:12:34;26.30;40.50
70807;DHT22;58882;52.170;5.386;2022-07-23T17:15:14;26.30;40.60
70807;DHT22;58882;52.170;5.386;2022-07-23T17:18:03;26.30;40.70
70807;DHT22;58882;52.170;5.386;2022-07-23T17:20:43;26.30;40.70
70807;DHT22;58882;52.170;5.386;2022-07-23T17:23:42;26.30;40.80
70807;DHT22;58882;52.170;5.386;2022-07-23T17:26:22;26.20;40.80
70807;DHT22;58882;52.170;5.386;2022-07-23T17:29:09;26.20;40.80
70807;DHT22;58882;52.170;5.386;2022-07-23T17:31:49;26.20;40.90
70807;DHT22;58882;52.170;5.386;2022-07-23T17:34:36;26.20;40.80
70807;DHT22;58882;52.170;5.386;2022-07-23T17:37:16;26.20;40.80
70807;DHT22;58882;52.170;5.386;2022-07-23T17:40:03;26.20;40.80
70807;DHT22;58882;52.170;5.386;2022-07-23T17:42:44;26.20;40.70
70807;DHT22;58882;52.170;5.386;2022-07-23T17:45:38;26.20;40.70
70807;DHT22;58882;52.170;5.386;2022-07-23T17:48:18;26.20;40.70
70807;DHT22;58882;52.170;5.386;2022-07-23T17:51:05;26.30;40.80
70807;DHT22;58882;52.170;5.386;2022-07-23T17:53:46;26.20;40.70
70807;DHT22;58882;52.170;5.386;2022-07-23T17:56:34;26.20;41.70